createdAt,value
2023-02-07T00:01:25.814Z,54.20
2023-02-07T00:03:55.448Z,68.10
2023-02-07T00:06:28.807Z,73.60
2023-02-07T00:08:56.511Z,72.60
2023-02-07T00:11:24.981Z,76.80
2023-02-07T00:13:56.273Z,75.80
2023-02-07T00:16:23.459Z,74.40
2023-02-07T00:18:52.664Z,77.80
2023-02-07T00:21:21.525Z,77.50
2023-02-07T00:23:48.866Z,79.10
2023-02-07T00:26:17.623Z,77.90
2023-02-07T00:28:45.409Z,75.70
2023-02-07T00:31:16.489Z,61.20
2023-02-07T00:33:45.448Z,61.80
2023-02-07T00:36:18.576Z,57.80
2023-02-07T00:38:46.253Z,64.40
2023-02-07T00:41:18.878Z,61.60
2023-02-07T00:43:47.773Z,58.10
2023-02-07T00:46:15.898Z,60.30
2023-02-07T00:48:43.468Z,56.90
2023-02-07T00:51:12.400Z,58.80
2023-02-07T00:53:40.584Z,56.10
2023-02-07T00:56:08.880Z,54.20
2023-02-07T00:58:36.725Z,54.00
2023-02-07T01:01:05.416Z,53.70
2023-02-07T01:03:33.471Z,50.70
2023-02-07T01:06:00.522Z,53.60
2023-02-07T01:08:28.190Z,52.20
2023-02-07T01:10:55.848Z,50.20
2023-02-07T01:13:23.291Z,49.70
2023-02-07T01:15:50.863Z,50.30
2023-02-07T01:18:17.851Z,49.00
2023-02-07T01:20:45.420Z,49.00
2023-02-07T01:23:14.250Z,49.40
2023-02-07T01:25:44.413Z,47.60
2023-02-07T01:28:12.429Z,54.60
2023-02-07T01:30:41.180Z,49.70
2023-02-07T01:33:08.639Z,48.50
2023-02-07T01:35:37.532Z,50.00
2023-02-07T01:38:05.448Z,49.10
2023-02-07T01:40:32.497Z,48.10
2023-02-07T01:42:59.574Z,47.30
2023-02-07T01:45:37.387Z,48.00
2023-02-07T01:48:20.390Z,47.60
2023-02-07T01:50:50.008Z,46.10
2023-02-07T01:53:22.772Z,46.80
2023-02-07T01:55:52.080Z,44.70
2023-02-07T01:58:19.684Z,43.30
2023-02-07T02:00:47.367Z,47.30
2023-02-07T02:03:14.435Z,47.20
2023-02-07T02:05:43.609Z,44.80
2023-02-07T02:08:11.044Z,47.90
2023-02-07T02:10:43.973Z,48.00
2023-02-07T02:13:25.204Z,47.90
2023-02-07T02:16:37.454Z,46.90
2023-02-07T02:19:23.748Z,50.10
2023-02-07T02:22:28.005Z,48.60
2023-02-07T02:25:03.820Z,46.80
2023-02-07T02:28:08.053Z,52.30
2023-02-07T02:31:09.619Z,53.00
2023-02-07T02:33:42.443Z,48.60
2023-02-07T02:36:42.152Z,48.20
2023-02-07T02:39:32.673Z,48.90
2023-02-07T02:42:11.490Z,47.50
2023-02-07T02:44:50.245Z,50.40
2023-02-07T02:47:20.430Z,51.80
2023-02-07T02:49:49.222Z,55.50
2023-02-07T02:52:16.743Z,51.20
2023-02-07T02:54:44.231Z,52.60
2023-02-07T02:57:51.443Z,57.50
2023-02-07T03:00:36.609Z,59.60
2023-02-07T03:03:28.011Z,57.00
2023-02-07T03:06:04.221Z,55.10
2023-02-07T03:08:52.581Z,62.50
2023-02-07T03:11:23.136Z,60.10
2023-02-07T03:14:14.481Z,56.40
2023-02-07T03:17:01.560Z,56.20
2023-02-07T03:19:37.824Z,56.30
2023-02-07T03:22:13.522Z,56.10
2023-02-07T03:24:48.294Z,55.30
2023-02-07T03:27:20.159Z,56.60
2023-02-07T03:29:50.961Z,60.80
2023-02-07T03:32:20.808Z,68.70
2023-02-07T03:34:56.885Z,77.10
2023-02-07T03:37:29.924Z,75.50
2023-02-07T03:39:57.446Z,84.60
2023-02-07T03:42:37.367Z,85.30
2023-02-07T03:45:08.409Z,79.40
2023-02-07T03:47:35.424Z,60.70
2023-02-07T03:50:02.781Z,62.60
2023-02-07T03:52:29.821Z,63.30
2023-02-07T03:54:56.767Z,62.70
2023-02-07T03:57:23.845Z,63.60
2023-02-07T03:59:51.264Z,63.40
2023-02-07T04:02:18.939Z,62.30
2023-02-07T04:04:45.864Z,67.80
2023-02-07T04:07:13.427Z,64.10
2023-02-07T04:09:40.372Z,63.80
2023-02-07T04:12:07.850Z,62.90
2023-02-07T04:14:34.870Z,64.20
2023-02-07T04:17:01.911Z,65.40
2023-02-07T04:19:29.265Z,65.70
2023-02-07T04:21:56.312Z,62.10
2023-02-07T04:24:23.669Z,64.10
2023-02-07T04:26:51.013Z,64.80
2023-02-07T04:29:18.009Z,66.10
2023-02-07T04:31:45.577Z,66.30
2023-02-07T04:34:13.480Z,66.10
2023-02-07T04:36:40.761Z,60.60
2023-02-07T04:39:18.322Z,64.90
2023-02-07T04:41:56.054Z,64.90
2023-02-07T04:44:23.135Z,65.20
2023-02-07T04:46:50.057Z,62.90
2023-02-07T04:49:17.354Z,58.00
2023-02-07T04:51:44.605Z,63.20
2023-02-07T04:54:12.212Z,70.60
2023-02-07T04:56:39.306Z,66.20
2023-02-07T04:59:06.254Z,62.30
2023-02-07T05:01:33.978Z,65.10
2023-02-07T05:04:01.172Z,64.80
2023-02-07T05:06:28.416Z,69.60
2023-02-07T05:08:55.459Z,65.80
2023-02-07T05:11:22.406Z,66.10
2023-02-07T05:13:59.788Z,64.50
2023-02-07T05:16:26.857Z,64.20
2023-02-07T05:18:53.884Z,60.30
2023-02-07T05:21:20.946Z,60.30
2023-02-07T05:23:48.167Z,54.60
2023-02-07T05:26:15.600Z,53.40
2023-02-07T05:28:42.721Z,67.00
2023-02-07T05:31:10.622Z,57.70
2023-02-07T05:33:37.591Z,51.60
2023-02-07T05:36:05.651Z,50.00
2023-02-07T05:38:32.959Z,48.30
2023-02-07T05:41:00.469Z,50.20
2023-02-07T05:43:27.609Z,48.10
2023-02-07T05:45:54.977Z,46.90
2023-02-07T05:48:22.111Z,51.00
2023-02-07T05:50:49.151Z,48.50
2023-02-07T05:53:16.475Z,51.00
2023-02-07T05:55:43.657Z,50.70
2023-02-07T05:58:10.710Z,55.80
2023-02-07T06:00:37.643Z,74.00
2023-02-07T06:03:04.987Z,68.10
2023-02-07T06:05:33.567Z,67.60
2023-02-07T06:08:00.731Z,80.00
2023-02-07T06:10:28.232Z,80.70
2023-02-07T06:12:55.431Z,79.20
2023-02-07T06:15:22.461Z,75.90
2023-02-07T06:17:49.723Z,68.70
2023-02-07T06:20:16.901Z,71.40
2023-02-07T06:22:44.114Z,64.30
2023-02-07T06:25:12.155Z,63.90
2023-02-07T06:27:41.444Z,72.00
2023-02-07T06:30:11.048Z,65.10
2023-02-07T06:32:38.033Z,74.90
2023-02-07T06:35:06.598Z,77.40
2023-02-07T06:37:33.788Z,82.80
2023-02-07T06:40:00.649Z,85.40
2023-02-07T06:42:27.643Z,79.90
2023-02-07T06:44:54.634Z,78.00
2023-02-07T06:47:22.053Z,79.40
2023-02-07T06:49:49.084Z,81.50
2023-02-07T06:52:16.850Z,70.90
2023-02-07T06:54:43.899Z,56.10
2023-02-07T06:57:11.151Z,54.60
2023-02-07T06:59:38.294Z,52.70
2023-02-07T07:02:05.649Z,51.10
2023-02-07T07:04:32.705Z,50.20
2023-02-07T07:06:59.736Z,51.40
2023-02-07T07:09:26.717Z,50.80
2023-02-07T07:11:54.160Z,50.40
2023-02-07T07:14:21.588Z,45.90
2023-02-07T07:16:49.204Z,43.60
2023-02-07T07:19:16.292Z,46.00
2023-02-07T07:21:43.292Z,50.00
2023-02-07T07:24:10.803Z,50.70
2023-02-07T07:26:48.981Z,51.70
2023-02-07T07:29:18.669Z,47.10
2023-02-07T07:31:47.023Z,34.10
2023-02-07T07:34:14.803Z,50.40
2023-02-07T07:36:42.239Z,50.00
2023-02-07T07:39:09.550Z,49.80
2023-02-07T07:41:36.900Z,50.40
2023-02-07T07:44:04.051Z,48.60
2023-02-07T07:46:31.136Z,54.90
2023-02-07T07:48:58.397Z,54.40
2023-02-07T07:51:25.497Z,51.20
2023-02-07T07:53:52.646Z,53.80
2023-02-07T07:56:20.427Z,58.00
2023-02-07T07:58:49.348Z,61.80
2023-02-07T08:01:17.153Z,59.20
2023-02-07T08:03:44.310Z,57.20
2023-02-07T08:06:11.513Z,53.70
2023-02-07T08:08:38.629Z,57.80
2023-02-07T08:11:08.983Z,59.70
2023-02-07T08:13:36.393Z,62.70
2023-02-07T08:16:04.905Z,62.00
2023-02-07T08:18:32.217Z,61.80
2023-02-07T08:20:59.513Z,64.30
2023-02-07T08:23:26.496Z,64.20
2023-02-07T08:25:53.550Z,66.20
2023-02-07T08:28:21.218Z,66.90
2023-02-07T08:30:48.665Z,64.50
2023-02-07T08:33:17.235Z,63.60
2023-02-07T08:35:44.896Z,59.30
2023-02-07T08:38:12.668Z,67.70
2023-02-07T08:40:40.107Z,66.40
2023-02-07T08:43:12.687Z,72.00
2023-02-07T08:45:48.950Z,66.10
2023-02-07T08:48:19.955Z,74.70
2023-02-07T08:50:46.938Z,75.40
2023-02-07T08:53:14.543Z,57.50
2023-02-07T08:55:42.757Z,73.00
2023-02-07T08:58:10.492Z,65.60
2023-02-07T09:00:38.583Z,82.50
2023-02-07T09:03:06.456Z,68.90
2023-02-07T09:05:34.148Z,68.80
2023-02-07T09:08:04.324Z,70.30
2023-02-07T09:10:32.302Z,51.80
2023-02-07T09:12:59.242Z,66.40
2023-02-07T09:15:26.751Z,71.30
2023-02-07T09:17:54.229Z,72.60
2023-02-07T09:20:21.709Z,72.80
2023-02-07T09:23:07.390Z,63.00
2023-02-07T09:25:34.432Z,55.00
2023-02-07T09:28:01.811Z,71.40
2023-02-07T09:30:29.288Z,72.70
2023-02-07T09:32:58.484Z,67.00
2023-02-07T09:35:26.100Z,67.30
2023-02-07T09:37:54.709Z,55.60
2023-02-07T09:40:22.855Z,71.90
2023-02-07T09:43:03.099Z,71.30
2023-02-07T09:45:35.102Z,72.80
2023-02-07T09:48:15.122Z,59.10
2023-02-07T09:50:52.149Z,80.60
2023-02-07T09:53:34.685Z,59.60
2023-02-07T09:56:03.287Z,63.90
2023-02-07T09:59:01.250Z,71.30
2023-02-07T10:01:34.897Z,75.10
2023-02-07T10:04:23.108Z,69.60
2023-02-07T10:06:54.238Z,79.90
2023-02-07T10:12:32.263Z,75.20
2023-02-07T10:15:25.689Z,79.80
2023-02-07T10:18:06.894Z,81.60
2023-02-07T10:23:39.022Z,66.90
2023-02-07T10:26:30.794Z,82.30
2023-02-07T10:29:08.488Z,76.30
2023-02-07T10:31:39.551Z,75.60
2023-02-07T10:36:50.004Z,60.40
2023-02-07T10:39:35.317Z,55.70
2023-02-07T10:42:02.526Z,60.30
2023-02-07T10:44:30.062Z,61.10
2023-02-07T10:47:03.034Z,58.20
2023-02-07T10:49:33.535Z,61.40
2023-02-07T10:52:14.153Z,57.00
2023-02-07T10:54:59.559Z,57.40
2023-02-07T10:57:28.513Z,62.60
2023-02-07T11:00:27.822Z,69.70
2023-02-07T11:03:01.387Z,72.70
2023-02-07T11:05:32.457Z,63.90
2023-02-07T11:10:40.114Z,61.70
2023-02-07T11:13:15.157Z,63.30
2023-02-07T11:15:53.536Z,67.00
2023-02-07T11:18:30.286Z,70.80
2023-02-07T11:20:58.073Z,73.30
2023-02-07T11:23:26.592Z,65.80
2023-02-07T11:25:56.826Z,64.40
2023-02-07T11:28:33.274Z,63.90
2023-02-07T11:31:15.664Z,57.50
2023-02-07T11:33:43.584Z,55.60
2023-02-07T11:36:32.025Z,74.00
2023-02-07T11:39:00.671Z,59.70
2023-02-07T11:41:33.150Z,60.40
2023-02-07T11:44:15.768Z,54.10
2023-02-07T11:46:48.432Z,48.60
2023-02-07T11:49:40.812Z,50.40
2023-02-07T11:52:09.529Z,47.80
2023-02-07T11:54:37.248Z,49.10
2023-02-07T11:57:07.483Z,47.30
2023-02-07T11:59:35.369Z,59.30
2023-02-07T12:02:27.708Z,53.20
2023-02-07T12:04:57.994Z,44.20
2023-02-07T12:07:41.292Z,43.00
2023-02-07T12:10:16.913Z,43.70
2023-02-07T12:12:56.728Z,45.80
2023-02-07T12:15:33.771Z,42.10
2023-02-07T12:18:04.220Z,34.30
2023-02-07T12:21:00.450Z,37.50
2023-02-07T12:23:47.365Z,29.50
2023-02-07T12:26:27.715Z,31.50
2023-02-07T12:29:44.937Z,34.20
2023-02-07T12:32:31.236Z,30.90
2023-02-07T12:35:32.250Z,30.80
2023-02-07T12:38:06.217Z,30.10
2023-02-07T12:40:51.998Z,34.50
2023-02-07T12:43:24.773Z,30.00
2023-02-07T12:46:01.313Z,35.70
2023-02-07T12:48:52.111Z,38.00
2023-02-07T12:51:34.212Z,39.10
2023-02-07T12:54:16.201Z,37.20
2023-02-07T12:56:46.097Z,47.60
2023-02-07T12:59:19.025Z,36.20
2023-02-07T13:01:53.495Z,67.00
2023-02-07T13:04:32.646Z,70.10
2023-02-07T13:07:24.369Z,44.20
2023-02-07T13:09:56.286Z,32.80
2023-02-07T13:12:47.450Z,27.70
2023-02-07T13:15:16.735Z,27.20
2023-02-07T13:17:53.567Z,28.40
2023-02-07T13:20:42.255Z,29.60
2023-02-07T13:23:25.726Z,26.10
2023-02-07T13:26:04.401Z,28.50
2023-02-07T13:29:13.168Z,42.10
2023-02-07T13:31:47.194Z,45.50
2023-02-07T13:34:24.693Z,25.90
2023-02-07T13:36:53.578Z,24.20
2023-02-07T13:39:39.294Z,25.30
2023-02-07T13:42:18.320Z,23.50
2023-02-07T13:45:20.048Z,24.90
2023-02-07T13:48:06.848Z,21.80
2023-02-07T13:50:40.520Z,20.90
2023-02-07T13:53:22.282Z,26.00
2023-02-07T13:55:50.245Z,22.10
2023-02-07T13:58:54.613Z,25.60
2023-02-07T14:01:25.469Z,26.60
2023-02-07T14:04:13.572Z,25.60
2023-02-07T14:06:46.137Z,29.30
2023-02-07T14:09:27.726Z,67.20
2023-02-07T14:12:02.011Z,42.00
2023-02-07T14:14:32.023Z,41.30
2023-02-07T14:17:03.665Z,40.60
2023-02-07T14:19:44.714Z,55.40
2023-02-07T14:22:22.754Z,52.00
2023-02-07T14:25:20.230Z,114.80
2023-02-07T14:27:53.329Z,35.20
2023-02-07T14:30:49.614Z,59.50
2023-02-07T14:33:21.686Z,47.60
2023-02-07T14:36:13.207Z,31.20
2023-02-07T14:38:46.392Z,44.20
2023-02-07T14:41:15.649Z,45.20
2023-02-07T14:44:08.129Z,34.30
2023-02-07T14:46:42.407Z,37.80
2023-02-07T14:49:33.009Z,53.40
2023-02-07T14:52:08.288Z,45.30
2023-02-07T14:54:43.317Z,45.40
2023-02-07T14:57:45.983Z,32.80
2023-02-07T15:00:13.053Z,33.40
2023-02-07T15:03:05.796Z,47.20
2023-02-07T15:05:36.627Z,39.20
2023-02-07T15:08:03.784Z,37.30
2023-02-07T15:10:34.095Z,74.40
2023-02-07T15:13:02.933Z,79.50
2023-02-07T15:15:36.310Z,40.10
2023-02-07T15:18:03.653Z,36.20
2023-02-07T15:20:34.865Z,38.40
2023-02-07T15:23:07.750Z,36.00
2023-02-07T15:25:36.448Z,34.70
2023-02-07T15:28:26.538Z,33.00
2023-02-07T15:31:13.642Z,32.20
2023-02-07T15:34:05.467Z,183.40
2023-02-07T15:36:38.711Z,100.80
2023-02-07T15:39:15.420Z,68.10
2023-02-07T15:41:45.980Z,54.90
2023-02-07T15:44:30.927Z,41.10
2023-02-07T15:47:01.175Z,38.40
2023-02-07T15:49:35.963Z,21.60
2023-02-07T15:52:20.837Z,34.50
2023-02-07T15:54:51.274Z,28.20
2023-02-07T15:57:41.027Z,31.80
2023-02-07T16:00:08.620Z,34.30
2023-02-07T16:02:43.377Z,33.00
2023-02-07T16:05:11.593Z,33.60
2023-02-07T16:07:40.357Z,24.20
2023-02-07T16:10:16.789Z,34.40
2023-02-07T16:12:50.234Z,54.10
2023-02-07T16:15:30.293Z,41.80
2023-02-07T16:17:57.228Z,37.30
2023-02-07T16:20:26.707Z,42.90
2023-02-07T16:23:01.145Z,59.00
2023-02-07T16:25:34.971Z,73.20
2023-02-07T16:28:08.681Z,69.40
2023-02-07T16:30:38.220Z,56.20
2023-02-07T16:33:12.990Z,64.00
2023-02-07T16:35:40.178Z,60.40
2023-02-07T16:38:07.612Z,66.10
2023-02-07T16:40:35.042Z,55.00
2023-02-07T16:43:03.102Z,42.00
2023-02-07T16:45:30.516Z,39.00
2023-02-07T16:47:59.616Z,39.20
2023-02-07T16:50:29.874Z,44.90
2023-02-07T16:52:58.096Z,35.80
2023-02-07T16:55:27.785Z,35.10
2023-02-07T16:57:57.397Z,44.80
2023-02-07T17:00:26.499Z,35.10
2023-02-07T17:02:54.021Z,37.50
2023-02-07T17:05:22.911Z,31.80
2023-02-07T17:07:50.986Z,39.90
2023-02-07T17:10:30.687Z,39.40
2023-02-07T17:12:58.337Z,33.80
2023-02-07T17:15:25.414Z,40.00
2023-02-07T17:17:54.571Z,42.20
2023-02-07T17:20:29.138Z,47.00
2023-02-07T17:22:56.905Z,46.20
2023-02-07T17:25:27.861Z,50.40
2023-02-07T17:27:55.099Z,49.50
2023-02-07T17:30:25.895Z,49.50
2023-02-07T17:32:52.955Z,50.00
2023-02-07T17:35:21.128Z,53.50
2023-02-07T17:38:02.100Z,54.50
2023-02-07T17:40:36.316Z,52.70
2023-02-07T17:43:04.794Z,48.80
2023-02-07T17:45:33.859Z,45.20
2023-02-07T17:48:01.981Z,39.80
2023-02-07T17:50:33.184Z,37.70
2023-02-07T17:53:03.862Z,35.00
2023-02-07T17:55:32.809Z,36.80
2023-02-07T17:58:00.976Z,37.40
2023-02-07T18:00:32.327Z,37.20
2023-02-07T18:02:59.738Z,38.20
2023-02-07T18:05:27.120Z,37.50
2023-02-07T18:07:54.481Z,36.60
2023-02-07T18:10:23.367Z,39.10
2023-02-07T18:12:50.933Z,41.10
2023-02-07T18:15:19.195Z,42.50
2023-02-07T18:17:47.989Z,44.10
2023-02-07T18:20:24.054Z,47.10
2023-02-07T18:22:52.798Z,50.40
2023-02-07T18:25:19.891Z,58.20
2023-02-07T18:27:48.383Z,67.20
2023-02-07T18:30:15.751Z,63.30
2023-02-07T18:32:43.336Z,65.60
2023-02-07T18:35:11.119Z,69.30
2023-02-07T18:37:38.735Z,72.40
2023-02-07T18:40:07.789Z,78.50
2023-02-07T18:42:35.261Z,73.60
2023-02-07T18:45:03.736Z,65.10
2023-02-07T18:47:32.793Z,50.40
2023-02-07T18:50:00.001Z,52.60
2023-02-07T18:52:26.999Z,54.80
2023-02-07T18:54:54.049Z,69.30
2023-02-07T18:57:20.947Z,83.10
2023-02-07T18:59:48.033Z,123.40
2023-02-07T19:02:15.154Z,137.30
2023-02-07T19:04:42.332Z,139.70
2023-02-07T19:07:09.885Z,98.00
2023-02-07T19:09:37.189Z,72.10
2023-02-07T19:12:04.645Z,50.90
2023-02-07T19:14:32.414Z,38.10
2023-02-07T19:17:00.565Z,30.00
2023-02-07T19:19:29.928Z,66.20
2023-02-07T19:21:58.152Z,73.40
2023-02-07T19:24:25.855Z,58.90
2023-02-07T19:26:59.110Z,65.50
2023-02-07T19:29:29.782Z,82.50
2023-02-07T19:32:01.021Z,78.90
2023-02-07T19:34:29.498Z,75.40
2023-02-07T19:36:57.608Z,79.10
2023-02-07T19:39:24.941Z,83.70
2023-02-07T19:41:51.962Z,83.70
2023-02-07T19:44:18.804Z,77.00
2023-02-07T19:46:46.397Z,72.80
2023-02-07T19:49:14.396Z,63.60
2023-02-07T19:51:41.578Z,66.70
2023-02-07T19:54:09.283Z,72.80
2023-02-07T19:56:37.839Z,71.50
2023-02-07T19:59:06.961Z,67.90
2023-02-07T20:01:37.716Z,61.10
2023-02-07T20:04:06.035Z,57.30
2023-02-07T20:06:35.525Z,49.20
2023-02-07T20:09:05.448Z,44.90
2023-02-07T20:11:32.892Z,43.50
2023-02-07T20:14:03.771Z,57.20
2023-02-07T20:19:00.717Z,38.70
2023-02-07T20:21:30.827Z,40.20
2023-02-07T20:23:58.414Z,37.30
2023-02-07T20:26:26.801Z,51.80
2023-02-07T20:28:55.131Z,55.30
2023-02-07T20:31:24.705Z,53.70
2023-02-07T20:33:53.113Z,54.90
2023-02-07T20:36:21.865Z,50.50
2023-02-07T20:38:49.358Z,41.50
2023-02-07T20:41:31.325Z,40.00
2023-02-07T20:44:08.253Z,39.70
2023-02-07T20:46:36.828Z,38.50
2023-02-07T20:49:07.443Z,43.40
2023-02-07T20:51:35.212Z,36.40
2023-02-07T20:54:04.238Z,35.50
2023-02-07T20:56:32.901Z,33.20
2023-02-07T20:59:01.033Z,41.50
2023-02-07T21:01:30.780Z,38.90
2023-02-07T21:04:01.366Z,35.40
2023-02-07T21:06:29.355Z,28.70
2023-02-07T21:09:02.103Z,40.30
2023-02-07T21:11:34.163Z,33.70
2023-02-07T21:14:05.737Z,35.90
2023-02-07T21:16:33.974Z,42.00
2023-02-07T21:19:01.834Z,38.00
2023-02-07T21:21:29.677Z,38.40
2023-02-07T21:23:58.096Z,37.00
2023-02-07T21:26:27.205Z,37.40
2023-02-07T21:29:02.163Z,41.50
2023-02-07T21:31:31.142Z,110.90
2023-02-07T21:33:58.881Z,92.40
2023-02-07T21:36:31.132Z,76.30
2023-02-07T21:39:00.244Z,48.70
2023-02-07T21:41:29.312Z,54.50
2023-02-07T21:43:57.500Z,66.50
2023-02-07T21:46:27.826Z,41.70
2023-02-07T21:49:01.981Z,41.60
2023-02-07T21:51:31.598Z,37.10
2023-02-07T21:53:59.422Z,97.30
2023-02-07T21:56:30.804Z,73.50
2023-02-07T21:59:00.338Z,52.50
2023-02-07T22:01:29.254Z,53.40
2023-02-07T22:03:59.453Z,54.60
2023-02-07T22:06:27.784Z,48.00
2023-02-07T22:08:57.794Z,35.00
2023-02-07T22:11:28.916Z,45.90
2023-02-07T22:16:26.110Z,32.60
2023-02-07T22:18:54.449Z,54.30
2023-02-07T22:21:27.869Z,57.20
2023-02-07T22:23:56.244Z,50.50
2023-02-07T22:26:24.512Z,49.80
2023-02-07T22:28:52.341Z,44.20
2023-02-07T22:31:25.186Z,40.80
2023-02-07T22:33:54.490Z,43.20
2023-02-07T22:36:25.397Z,48.00
2023-02-07T22:38:53.668Z,55.30
2023-02-07T22:41:21.809Z,57.10
2023-02-07T22:43:49.031Z,41.20
2023-02-07T22:46:18.917Z,35.90
2023-02-07T22:48:46.514Z,38.50
2023-02-07T22:51:18.637Z,34.40
2023-02-07T22:53:46.233Z,38.90
2023-02-07T22:56:13.763Z,35.00
2023-02-07T22:58:41.986Z,38.80
2023-02-07T23:01:37.121Z,38.20
2023-02-07T23:04:06.389Z,37.50
2023-02-07T23:06:34.140Z,40.50
2023-02-07T23:09:02.252Z,46.10
2023-02-07T23:11:29.259Z,49.20
2023-02-07T23:13:56.286Z,43.80
2023-02-07T23:16:26.200Z,41.00
2023-02-07T23:18:56.726Z,43.70
2023-02-07T23:21:25.687Z,42.60
2023-02-07T23:23:53.884Z,40.00
2023-02-07T23:26:24.011Z,43.10
2023-02-07T23:28:52.515Z,46.10
2023-02-07T23:31:21.819Z,44.20
2023-02-07T23:33:50.152Z,40.00
2023-02-07T23:36:17.958Z,35.80
2023-02-07T23:38:46.578Z,36.20
2023-02-07T23:41:13.959Z,33.60
2023-02-07T23:43:41.360Z,35.60
2023-02-07T23:46:09.382Z,29.20
2023-02-07T23:48:38.773Z,26.90
2023-02-07T23:51:07.284Z,27.60
2023-02-07T23:53:34.904Z,29.90
2023-02-07T23:56:03.525Z,38.40
2023-02-07T23:58:31.256Z,37.30
